createdAt,value
2023-02-06T00:00:55.873Z,104343.75
2023-02-06T00:03:23.686Z,104341.91
2023-02-06T00:05:56.000Z,104340.94
2023-02-06T00:08:23.802Z,104345.03
2023-02-06T00:10:52.970Z,104347.81
2023-02-06T00:13:21.525Z,104347.00
2023-02-06T00:15:49.463Z,104344.38
2023-02-06T00:18:17.278Z,104329.59
2023-02-06T00:20:45.028Z,104333.88
2023-02-06T00:23:12.834Z,104324.84
2023-02-06T00:25:40.637Z,104329.75
2023-02-06T00:28:09.886Z,104320.56
2023-02-06T00:30:37.740Z,104327.63
2023-02-06T00:33:05.540Z,104315.50
2023-02-06T00:35:33.570Z,104309.41
2023-02-06T00:38:02.445Z,104321.06
2023-02-06T00:40:30.586Z,104317.44
2023-02-06T00:42:58.377Z,104316.66
2023-02-06T00:45:27.626Z,104322.38
2023-02-06T00:47:55.399Z,104316.47
2023-02-06T00:50:23.288Z,104309.25
2023-02-06T00:52:51.073Z,104322.38
2023-02-06T00:55:19.057Z,104327.16
2023-02-06T00:57:46.861Z,104329.91
2023-02-06T01:00:15.409Z,104328.59
2023-02-06T01:02:44.604Z,104324.50
2023-02-06T01:05:12.416Z,104325.31
2023-02-06T01:07:41.244Z,104327.94
2023-02-06T01:10:09.982Z,104325.31
2023-02-06T01:12:38.545Z,104328.59
2023-02-06T01:15:09.384Z,104337.13
2023-02-06T01:17:39.070Z,104336.31
2023-02-06T01:20:11.877Z,104334.50
2023-02-06T01:22:39.926Z,104343.22
2023-02-06T01:25:08.531Z,104344.03
2023-02-06T01:27:37.110Z,104343.03
2023-02-06T01:30:06.420Z,104333.53
2023-02-06T01:32:37.845Z,104338.78
2023-02-06T01:35:08.390Z,104340.59
2023-02-06T01:37:37.298Z,104336.16
2023-02-06T01:40:05.961Z,104333.53
2023-02-06T01:42:35.587Z,104334.50
2023-02-06T01:45:38.892Z,104327.63
2023-02-06T01:48:11.145Z,104332.06
2023-02-06T01:50:44.292Z,104334.69
2023-02-06T01:53:13.965Z,104334.81
2023-02-06T01:55:45.693Z,104341.72
2023-02-06T01:58:18.226Z,104323.34
2023-02-06T02:00:46.923Z,104325.81
2023-02-06T02:03:15.101Z,104325.00
2023-02-06T02:05:48.265Z,104319.91
2023-02-06T02:08:21.314Z,104322.38
2023-02-06T02:10:49.452Z,104323.84
2023-02-06T02:13:18.784Z,104316.78
2023-02-06T02:15:58.920Z,104326.31
2023-02-06T02:18:48.078Z,104306.28
2023-02-06T02:21:50.968Z,104306.28
2023-02-06T02:24:28.368Z,104305.31
2023-02-06T02:27:34.539Z,104310.56
2023-02-06T02:30:25.678Z,104305.31
2023-02-06T02:33:13.577Z,104310.56
2023-02-06T02:35:54.785Z,104297.25
2023-02-06T02:38:36.498Z,104298.25
2023-02-06T02:41:11.003Z,104298.41
2023-02-06T02:43:44.812Z,104287.25
2023-02-06T02:46:19.047Z,104295.13
2023-02-06T02:48:50.042Z,104296.78
2023-02-06T02:51:20.254Z,104295.13
2023-02-06T02:53:48.115Z,104296.28
2023-02-06T02:56:19.991Z,104290.19
2023-02-06T02:58:50.475Z,104288.56
2023-02-06T03:01:22.552Z,104288.56
2023-02-06T03:03:53.948Z,104294.97
2023-02-06T03:06:43.066Z,104282.97
2023-02-06T03:09:16.868Z,104291.81
2023-02-06T03:11:56.356Z,104282.63
2023-02-06T03:14:34.024Z,104268.88
2023-02-06T03:17:10.493Z,104273.47
2023-02-06T03:19:45.080Z,104278.19
2023-02-06T03:22:16.313Z,104279.69
2023-02-06T03:24:44.142Z,104281.78
2023-02-06T03:27:16.919Z,104286.69
2023-02-06T03:29:48.589Z,104276.38
2023-02-06T03:32:21.195Z,104283.91
2023-02-06T03:34:54.859Z,104284.56
2023-02-06T03:37:25.420Z,104283.38
2023-02-06T03:39:53.473Z,104289.09
2023-02-06T03:42:23.619Z,104277.31
2023-02-06T03:44:58.569Z,104283.03
2023-02-06T03:47:27.525Z,104284.81
2023-02-06T03:49:58.911Z,104291.19
2023-02-06T03:52:35.145Z,104293.00
2023-02-06T03:55:08.327Z,104289.72
2023-02-06T03:57:37.528Z,104289.06
2023-02-06T04:00:06.564Z,104289.38
2023-02-06T04:02:41.317Z,104292.28
2023-02-06T04:05:09.877Z,104292.47
2023-02-06T04:07:39.125Z,104304.09
2023-02-06T04:10:07.606Z,104296.53
2023-02-06T04:12:35.408Z,104284.06
2023-02-06T04:15:03.348Z,104279.44
2023-02-06T04:17:46.357Z,104286.97
2023-02-06T04:20:19.126Z,104289.72
2023-02-06T04:22:48.357Z,104288.09
2023-02-06T04:25:16.159Z,104289.22
2023-02-06T04:27:44.058Z,104292.81
2023-02-06T04:30:13.216Z,104293.94
2023-02-06T04:32:40.999Z,104286.91
2023-02-06T04:35:09.138Z,104287.91
2023-02-06T04:37:37.635Z,104284.63
2023-02-06T04:40:07.872Z,104278.53
2023-02-06T04:42:35.724Z,104276.06
2023-02-06T04:45:03.525Z,104272.13
2023-02-06T04:47:31.375Z,104264.06
2023-02-06T04:49:59.162Z,104262.56
2023-02-06T04:52:27.013Z,104279.41
2023-02-06T04:54:54.783Z,104274.34
2023-02-06T04:57:24.339Z,104285.78
2023-02-06T04:59:52.158Z,104294.19
2023-02-06T05:02:19.957Z,104289.44
2023-02-06T05:04:47.796Z,104292.72
2023-02-06T05:07:15.575Z,104286.97
2023-02-06T05:09:43.372Z,104281.38
2023-02-06T05:12:13.900Z,104289.41
2023-02-06T05:14:43.351Z,104291.03
2023-02-06T05:17:11.118Z,104294.31
2023-02-06T05:19:38.905Z,104297.59
2023-02-06T05:22:06.693Z,104291.38
2023-02-06T05:24:34.526Z,104299.25
2023-02-06T05:27:02.362Z,104298.28
2023-02-06T05:29:30.339Z,104296.47
2023-02-06T05:31:59.648Z,104306.16
2023-02-06T05:34:27.874Z,104307.09
2023-02-06T05:36:55.724Z,104312.66
2023-02-06T05:39:23.566Z,104314.78
2023-02-06T05:41:51.458Z,104316.56
2023-02-06T05:44:19.301Z,104315.72
2023-02-06T05:46:48.360Z,104319.34
2023-02-06T05:49:18.054Z,104315.91
2023-02-06T05:51:45.998Z,104315.91
2023-02-06T05:54:16.885Z,104313.41
2023-02-06T05:56:44.783Z,104309.00
2023-02-06T05:59:12.800Z,104300.31
2023-02-06T06:01:40.674Z,104302.94
2023-02-06T06:04:08.574Z,104306.38
2023-02-06T06:06:37.750Z,104306.38
2023-02-06T06:09:05.558Z,104303.63
2023-02-06T06:11:34.285Z,104301.97
2023-02-06T06:14:02.158Z,104297.84
2023-02-06T06:16:29.910Z,104305.88
2023-02-06T06:18:57.767Z,104309.47
2023-02-06T06:21:25.674Z,104311.13
2023-02-06T06:23:54.941Z,104313.56
2023-02-06T06:26:22.726Z,104310.00
2023-02-06T06:28:50.514Z,104316.03
2023-02-06T06:31:18.743Z,104309.31
2023-02-06T06:33:46.565Z,104312.25
2023-02-06T06:36:14.872Z,104319.44
2023-02-06T06:38:42.930Z,104322.06
2023-02-06T06:41:12.189Z,104327.13
2023-02-06T06:43:40.839Z,104322.72
2023-02-06T06:46:08.745Z,104315.53
2023-02-06T06:48:38.243Z,104311.94
2023-02-06T06:51:07.020Z,104308.50
2023-02-06T06:53:39.762Z,104308.34
2023-02-06T06:56:09.588Z,104303.09
2023-02-06T06:58:38.788Z,104298.16
2023-02-06T07:01:08.505Z,104301.09
2023-02-06T07:03:36.633Z,104292.56
2023-02-06T07:06:04.799Z,104292.72
2023-02-06T07:08:32.793Z,104290.91
2023-02-06T07:11:00.547Z,104293.38
2023-02-06T07:13:28.400Z,104293.25
2023-02-06T07:15:57.543Z,104295.03
2023-02-06T07:18:25.303Z,104288.66
2023-02-06T07:20:53.210Z,104288.50
2023-02-06T07:23:20.945Z,104292.63
2023-02-06T07:25:48.937Z,104283.78
2023-02-06T07:28:16.967Z,104273.44
2023-02-06T07:30:44.858Z,104267.56
2023-02-06T07:33:14.050Z,104269.22
2023-02-06T07:35:43.075Z,104260.53
2023-02-06T07:38:10.813Z,104254.31
2023-02-06T07:40:44.957Z,104250.53
2023-02-06T07:43:13.505Z,104253.69
2023-02-06T07:45:41.390Z,104253.41
2023-02-06T07:48:09.671Z,104253.88
2023-02-06T07:50:39.271Z,104238.03
2023-02-06T07:53:07.848Z,104233.59
2023-02-06T07:55:38.298Z,104238.69
2023-02-06T07:58:06.236Z,104235.59
2023-02-06T08:00:34.130Z,104221.38
2023-02-06T08:03:01.971Z,104213.50
2023-02-06T08:05:29.863Z,104220.38
2023-02-06T08:07:59.296Z,104208.28
2023-02-06T08:10:27.328Z,104215.97
2023-02-06T08:12:55.100Z,104198.28
2023-02-06T08:15:22.875Z,104200.59
2023-02-06T08:17:50.705Z,104202.75
2023-02-06T08:20:18.741Z,104193.56
2023-02-06T08:22:46.663Z,104201.63
2023-02-06T08:25:15.834Z,104193.44
2023-02-06T08:27:43.701Z,104187.72
2023-02-06T08:30:13.998Z,104183.00
2023-02-06T08:32:41.780Z,104194.63
2023-02-06T08:35:09.693Z,104200.22
2023-02-06T08:37:37.527Z,104200.06
2023-02-06T08:40:06.090Z,104206.50
2023-02-06T08:42:35.983Z,104198.78
2023-02-06T08:45:03.784Z,104202.41
2023-02-06T08:47:32.109Z,104198.81
2023-02-06T08:50:02.898Z,104196.22
2023-02-06T08:52:31.042Z,104184.22
2023-02-06T08:54:59.296Z,104196.34
2023-02-06T08:57:26.985Z,104203.25
2023-02-06T08:59:56.118Z,104205.88
2023-02-06T09:02:24.051Z,104208.50
2023-02-06T09:04:52.046Z,104196.34
2023-02-06T09:07:19.988Z,104193.53
2023-02-06T09:09:47.760Z,104196.63
2023-02-06T09:12:16.657Z,104200.06
2023-02-06T09:14:44.462Z,104201.34
2023-02-06T09:17:13.727Z,104206.72
2023-02-06T09:19:41.741Z,104209.59
2023-02-06T09:22:09.514Z,104211.84
2023-02-06T09:24:38.688Z,104194.28
2023-02-06T09:27:06.592Z,104193.06
2023-02-06T09:29:34.595Z,104183.78
2023-02-06T09:32:02.779Z,104201.63
2023-02-06T09:34:31.938Z,104212.91
2023-02-06T09:37:02.476Z,104218.13
2023-02-06T09:39:30.880Z,104218.69
2023-02-06T09:42:04.084Z,104222.91
2023-02-06T09:44:35.168Z,104221.69
2023-02-06T09:47:07.159Z,104226.72
2023-02-06T09:49:44.152Z,104219.34
2023-02-06T09:52:35.967Z,104217.28
2023-02-06T09:55:12.201Z,104225.03
2023-02-06T09:57:47.525Z,104220.63
2023-02-06T10:00:30.281Z,104218.16
2023-02-06T10:03:11.299Z,104221.63
2023-02-06T10:05:50.509Z,104217.50
2023-02-06T10:08:23.880Z,104225.84
2023-02-06T10:10:56.440Z,104231.22
2023-02-06T10:13:30.260Z,104237.22
2023-02-06T10:16:05.506Z,104222.91
2023-02-06T10:18:40.384Z,104230.63
2023-02-06T10:21:19.637Z,104220.53
2023-02-06T10:23:56.728Z,104223.06
2023-02-06T10:26:24.554Z,104223.94
2023-02-06T10:28:55.988Z,104206.09
2023-02-06T10:31:47.613Z,104210.63
2023-02-06T10:34:29.533Z,104218.13
2023-02-06T10:37:11.255Z,104216.94
2023-02-06T10:39:43.966Z,104210.41
2023-02-06T10:42:21.707Z,104204.53
2023-02-06T10:45:03.530Z,104207.53
2023-02-06T10:47:43.553Z,104210.53
2023-02-06T10:50:22.791Z,104220.22
2023-02-06T10:52:52.806Z,104217.22
2023-02-06T10:55:24.887Z,104213.56
2023-02-06T10:58:05.119Z,104208.25
2023-02-06T11:00:33.769Z,104204.72
2023-02-06T11:03:08.179Z,104205.88
2023-02-06T11:05:38.269Z,104208.88
2023-02-06T11:08:14.904Z,104212.06
2023-02-06T11:10:42.942Z,104223.84
2023-02-06T11:13:14.939Z,104230.78
2023-02-06T11:15:51.497Z,104235.34
2023-02-06T11:18:25.262Z,104224.81
2023-02-06T11:20:55.730Z,104216.06
2023-02-06T11:23:26.808Z,104217.81
2023-02-06T11:26:05.262Z,104209.16
2023-02-06T11:28:35.157Z,104206.56
2023-02-06T11:31:05.448Z,104194.66
2023-02-06T11:33:52.072Z,104192.81
2023-02-06T11:36:39.600Z,104187.59
2023-02-06T11:39:24.102Z,104183.72
2023-02-06T11:41:58.663Z,104186.84
2023-02-06T11:44:27.652Z,104170.16
2023-02-06T11:46:56.947Z,104170.19
2023-02-06T11:49:28.988Z,104178.16
2023-02-06T11:51:59.782Z,104183.13
2023-02-06T11:54:31.359Z,104171.75
2023-02-06T11:57:03.315Z,104165.50
2023-02-06T11:59:34.421Z,104170.47
2023-02-06T12:02:05.679Z,104167.47
2023-02-06T12:04:38.142Z,104168.28
2023-02-06T12:07:15.588Z,104166.59
2023-02-06T12:09:44.943Z,104169.91
2023-02-06T12:12:23.843Z,104160.53
2023-02-06T12:14:56.406Z,104152.78
2023-02-06T12:17:29.141Z,104156.53
2023-02-06T12:20:02.934Z,104153.19
2023-02-06T12:22:36.243Z,104153.97
2023-02-06T12:25:06.832Z,104159.22
2023-02-06T12:27:39.405Z,104162.91
2023-02-06T12:30:24.784Z,104156.19
2023-02-06T12:32:57.958Z,104160.16
2023-02-06T12:35:35.699Z,104161.94
2023-02-06T12:38:08.301Z,104152.78
2023-02-06T12:40:46.053Z,104149.19
2023-02-06T12:43:16.462Z,104152.13
2023-02-06T12:45:52.197Z,104142.25
2023-02-06T12:48:25.324Z,104132.34
2023-02-06T12:51:02.716Z,104140.63
2023-02-06T12:53:36.321Z,104126.19
2023-02-06T12:56:12.124Z,104119.19
2023-02-06T12:58:52.423Z,104113.19
2023-02-06T13:01:33.809Z,104115.84
2023-02-06T13:04:05.001Z,104105.84
2023-02-06T13:06:43.616Z,104111.28
2023-02-06T13:09:21.815Z,104101.81
2023-02-06T13:11:51.268Z,104095.31
2023-02-06T13:14:22.609Z,104088.72
2023-02-06T13:16:53.891Z,104083.31
2023-02-06T13:19:51.886Z,104092.97
2023-02-06T13:22:36.392Z,104078.25
2023-02-06T13:25:52.492Z,104073.13
2023-02-06T13:28:59.681Z,104077.94
2023-02-06T13:31:34.414Z,104069.25
2023-02-06T13:34:06.433Z,104071.56
2023-02-06T13:36:49.962Z,104067.06
2023-02-06T13:39:27.777Z,104068.03
2023-02-06T13:41:56.777Z,104070.47
2023-02-06T13:44:31.763Z,104074.69
2023-02-06T13:47:41.710Z,104080.16
2023-02-06T13:50:30.783Z,104074.84
2023-02-06T13:53:14.935Z,104076.41
2023-02-06T13:55:59.263Z,104072.63
2023-02-06T13:58:39.085Z,104064.38
2023-02-06T14:01:14.574Z,104066.66
2023-02-06T14:03:48.262Z,104064.63
2023-02-06T14:06:31.311Z,104058.31
2023-02-06T14:09:10.126Z,104058.09
2023-02-06T14:12:05.463Z,104065.63
2023-02-06T14:14:43.972Z,104054.78
2023-02-06T14:17:28.061Z,104064.75
2023-02-06T14:20:04.594Z,104058.47
2023-02-06T14:22:39.258Z,104058.94
2023-02-06T14:25:22.154Z,104058.56
2023-02-06T14:28:03.357Z,104062.09
2023-02-06T14:30:37.971Z,104063.13
2023-02-06T14:33:21.881Z,104065.38
2023-02-06T14:36:04.777Z,104054.84
2023-02-06T14:39:08.133Z,104060.00
2023-02-06T14:41:39.585Z,104067.53
2023-02-06T14:44:14.524Z,104062.63
2023-02-06T14:46:43.796Z,104064.81
2023-02-06T14:49:18.711Z,104062.63
2023-02-06T14:51:51.750Z,104060.19
2023-02-06T14:54:38.399Z,104067.78
2023-02-06T14:57:16.440Z,104073.94
2023-02-06T14:59:52.334Z,104069.31
2023-02-06T15:02:26.958Z,104062.91
2023-02-06T15:04:56.132Z,104064.22
2023-02-06T15:07:28.990Z,104062.63
2023-02-06T15:10:01.040Z,104063.66
2023-02-06T15:12:30.067Z,104063.34
2023-02-06T15:15:02.843Z,104067.59
2023-02-06T15:17:31.644Z,104073.88
2023-02-06T15:20:24.122Z,104065.00
2023-02-06T15:22:52.614Z,104067.56
2023-02-06T15:25:34.735Z,104072.06
2023-02-06T15:28:05.883Z,104075.19
2023-02-06T15:30:37.627Z,104075.69
2023-02-06T15:33:10.319Z,104066.25
2023-02-06T15:35:42.369Z,104063.00
2023-02-06T15:38:15.142Z,104050.75
2023-02-06T15:40:46.139Z,104063.66
2023-02-06T15:43:16.831Z,104058.50
2023-02-06T15:45:46.028Z,104064.31
2023-02-06T15:48:19.593Z,104058.72
2023-02-06T15:50:59.451Z,104063.81
2023-02-06T15:53:33.728Z,104057.84
2023-02-06T15:56:03.947Z,104065.69
2023-02-06T15:58:33.890Z,104054.31
2023-02-06T16:01:05.735Z,104061.22
2023-02-06T16:03:33.694Z,104066.16
2023-02-06T16:06:02.901Z,104060.91
2023-02-06T16:08:34.507Z,104062.53
2023-02-06T16:11:26.742Z,104055.28
2023-02-06T16:14:03.936Z,104063.44
2023-02-06T16:16:31.871Z,104067.75
2023-02-06T16:18:59.803Z,104064.22
2023-02-06T16:21:30.221Z,104063.44
2023-02-06T16:24:16.612Z,104058.56
2023-02-06T16:26:47.914Z,104065.94
2023-02-06T16:29:26.468Z,104066.81
2023-02-06T16:32:00.443Z,104063.94
2023-02-06T16:34:36.522Z,104064.97
2023-02-06T16:37:10.805Z,104060.78
2023-02-06T16:39:38.962Z,104063.66
2023-02-06T16:42:06.999Z,104078.03
2023-02-06T16:44:44.780Z,104077.22
2023-02-06T16:47:15.367Z,104082.16
2023-02-06T16:49:44.358Z,104080.53
2023-02-06T16:52:18.903Z,104081.59
2023-02-06T16:54:47.122Z,104088.72
2023-02-06T16:57:22.574Z,104087.50
2023-02-06T16:59:52.330Z,104085.03
2023-02-06T17:02:20.204Z,104084.22
2023-02-06T17:04:48.509Z,104091.97
2023-02-06T17:07:19.211Z,104099.53
2023-02-06T17:09:47.982Z,104098.34
2023-02-06T17:12:17.859Z,104103.47
2023-02-06T17:14:46.459Z,104093.91
2023-02-06T17:17:17.271Z,104110.59
2023-02-06T17:19:45.234Z,104097.78
2023-02-06T17:22:14.183Z,104094.31
2023-02-06T17:24:43.146Z,104092.28
2023-02-06T17:27:16.528Z,104094.53
2023-02-06T17:29:47.276Z,104079.47
2023-02-06T17:32:21.687Z,104086.81
2023-02-06T17:34:50.585Z,104083.34
2023-02-06T17:37:21.549Z,104089.25
2023-02-06T17:39:51.096Z,104075.19
2023-02-06T17:42:19.155Z,104081.09
2023-02-06T17:44:46.982Z,104084.97
2023-02-06T17:47:16.170Z,104079.63
2023-02-06T17:49:43.945Z,104080.66
2023-02-06T17:52:11.764Z,104080.22
2023-02-06T17:54:39.740Z,104076.72
2023-02-06T17:57:07.779Z,104076.13
2023-02-06T17:59:36.464Z,104068.34
2023-02-06T18:02:04.887Z,104071.97
2023-02-06T18:04:39.750Z,104070.94
2023-02-06T18:07:07.402Z,104071.69
2023-02-06T18:09:35.313Z,104072.44
2023-02-06T18:12:03.123Z,104067.56
2023-02-06T18:14:30.995Z,104077.13
2023-02-06T18:16:58.771Z,104072.44
2023-02-06T18:19:26.587Z,104073.00
2023-02-06T18:21:55.837Z,104070.91
2023-02-06T18:24:23.666Z,104070.13
2023-02-06T18:26:51.542Z,104070.75
2023-02-06T18:29:19.384Z,104067.91
2023-02-06T18:31:47.257Z,104056.28
2023-02-06T18:34:15.049Z,104050.97
2023-02-06T18:36:42.856Z,104057.78
2023-02-06T18:39:12.645Z,104054.06
2023-02-06T18:42:00.151Z,104052.41
2023-02-06T18:44:28.242Z,104053.44
2023-02-06T18:46:56.097Z,104050.34
2023-02-06T18:49:24.399Z,104046.66
2023-02-06T18:51:52.218Z,104049.88
2023-02-06T18:54:21.381Z,104046.81
2023-02-06T18:56:49.872Z,104042.88
2023-02-06T18:59:17.963Z,104041.00
2023-02-06T19:01:45.835Z,104039.72
2023-02-06T19:04:14.054Z,104041.47
2023-02-06T19:06:43.128Z,104034.25
2023-02-06T19:09:13.119Z,104025.09
2023-02-06T19:11:43.497Z,104029.84
2023-02-06T19:14:15.159Z,104031.81
2023-02-06T19:16:44.595Z,104032.59
2023-02-06T19:19:13.277Z,104024.22
2023-02-06T19:21:41.426Z,104021.72
2023-02-06T19:24:12.128Z,104019.59
2023-02-06T19:26:40.151Z,104028.75
2023-02-06T19:29:09.719Z,104024.19
2023-02-06T19:31:40.500Z,104024.06
2023-02-06T19:34:08.516Z,104023.53
2023-02-06T19:36:36.653Z,104024.63
2023-02-06T19:39:07.199Z,104016.19
2023-02-06T19:41:35.493Z,104032.91
2023-02-06T19:44:04.222Z,104031.84
2023-02-06T19:46:33.370Z,104027.19
2023-02-06T19:49:01.309Z,104036.72
2023-02-06T19:51:31.435Z,104038.44
2023-02-06T19:54:00.358Z,104041.19
2023-02-06T19:56:34.395Z,104039.09
2023-02-06T19:59:05.512Z,104043.88
2023-02-06T20:01:35.501Z,104038.53
2023-02-06T20:04:04.292Z,104037.72
2023-02-06T20:06:35.014Z,104033.19
2023-02-06T20:09:03.700Z,104025.53
2023-02-06T20:11:33.405Z,104029.44
2023-02-06T20:14:01.319Z,104036.75
2023-02-06T20:16:31.620Z,104036.28
2023-02-06T20:19:07.708Z,104031.25
2023-02-06T20:21:39.237Z,104029.41
2023-02-06T20:24:09.128Z,104025.19
2023-02-06T20:26:38.550Z,104033.47
2023-02-06T20:29:07.538Z,104028.56
2023-02-06T20:31:35.700Z,104030.41
2023-02-06T20:34:05.640Z,104021.69
2023-02-06T20:36:33.494Z,104029.28
2023-02-06T20:39:02.318Z,104029.16
2023-02-06T20:41:32.204Z,104019.31
2023-02-06T20:44:01.589Z,104019.84
2023-02-06T20:46:32.679Z,104015.94
2023-02-06T20:49:02.938Z,104011.84
2023-02-06T20:51:32.976Z,104015.63
2023-02-06T20:54:00.785Z,104019.63
2023-02-06T20:56:29.356Z,104013.09
2023-02-06T20:58:57.956Z,104008.88
2023-02-06T21:01:28.198Z,104013.69
2023-02-06T21:03:58.562Z,104016.47
2023-02-06T21:06:26.863Z,104017.00
2023-02-06T21:08:59.963Z,104012.75
2023-02-06T21:11:29.665Z,104019.47
2023-02-06T21:13:59.100Z,104014.22
2023-02-06T21:16:27.857Z,104016.03
2023-02-06T21:18:56.424Z,104018.50
2023-02-06T21:21:25.532Z,104018.00
2023-02-06T21:23:55.702Z,104022.16
2023-02-06T21:26:25.634Z,104019.22
2023-02-06T21:28:53.669Z,104021.19
2023-02-06T21:31:24.473Z,104015.25
2023-02-06T21:33:53.484Z,104016.59
2023-02-06T21:36:22.849Z,104011.53
2023-02-06T21:38:50.741Z,104007.63
2023-02-06T21:41:19.626Z,103999.97
2023-02-06T21:43:49.060Z,104002.25
2023-02-06T21:46:16.893Z,104006.19
2023-02-06T21:48:44.852Z,104011.78
2023-02-06T21:51:14.961Z,104010.31
2023-02-06T21:53:43.745Z,104009.84
2023-02-06T21:56:17.437Z,104007.19
2023-02-06T21:58:45.857Z,104002.28
2023-02-06T22:01:18.326Z,104008.19
2023-02-06T22:03:46.705Z,103997.34
2023-02-06T22:06:15.303Z,104008.50
2023-02-06T22:08:45.248Z,104005.19
2023-02-06T22:11:15.692Z,104009.47
2023-02-06T22:13:44.143Z,104003.41
2023-02-06T22:16:12.640Z,104008.16
2023-02-06T22:18:42.540Z,104003.72
2023-02-06T22:21:14.015Z,104013.69
2023-02-06T22:23:43.032Z,104013.69
2023-02-06T22:26:12.845Z,104030.41
2023-02-06T22:28:40.777Z,104029.53
2023-02-06T22:31:11.519Z,104018.88
2023-02-06T22:33:41.442Z,104021.44
2023-02-06T22:36:11.456Z,104020.13
2023-02-06T22:38:39.978Z,104016.53
2023-02-06T22:41:11.721Z,104012.47
2023-02-06T22:43:40.338Z,104016.88
2023-02-06T22:46:09.041Z,104016.03
2023-02-06T22:48:37.306Z,104007.72
2023-02-06T22:51:08.149Z,104017.34
2023-02-06T22:53:37.395Z,104026.81
2023-02-06T22:56:25.147Z,104030.44
2023-02-06T22:58:53.889Z,104024.38
2023-02-06T23:01:24.080Z,104022.88
2023-02-06T23:03:52.921Z,104017.81
2023-02-06T23:06:22.822Z,104016.81
2023-02-06T23:08:50.870Z,104016.81
2023-02-06T23:11:18.912Z,104014.50
2023-02-06T23:13:46.839Z,104007.00
2023-02-06T23:16:14.683Z,103999.75
2023-02-06T23:18:42.483Z,104007.25
2023-02-06T23:21:12.922Z,104003.97
2023-02-06T23:23:43.335Z,104005.94
2023-02-06T23:26:13.685Z,104020.31
2023-02-06T23:28:42.574Z,104023.34
2023-02-06T23:31:11.257Z,104017.72
2023-02-06T23:33:39.401Z,104015.03
2023-02-06T23:36:09.223Z,104019.78
2023-02-06T23:38:37.278Z,104017.75
2023-02-06T23:41:08.976Z,104027.25
2023-02-06T23:43:37.272Z,104030.16
2023-02-06T23:46:06.194Z,104025.47
2023-02-06T23:48:34.623Z,104024.34
2023-02-06T23:51:02.727Z,104023.13
2023-02-06T23:53:31.643Z,104026.06
2023-02-06T23:55:59.472Z,104024.88
2023-02-06T23:58:28.994Z,104024.72
